Terminal Aerodrome Forecast
Issued by NWS

Home | Current Version | Previous Version | Text Only | Print | Product List | Glossary On
Versions: 1 2 3 4 5 6 7 8 9 10 11 12 13 14 15 16 17 18 19 20 21 22 23
000
FTUS46 KMFR 080525
TAFOTH
TAF
KOTH 080525Z 0806/0906 VRB03KT P6SM OVC016
     FM080900 VRB03KT 4SM BR OVC008
     FM081600 VRB03KT P6SM OVC012
     FM081800 32008KT P6SM SCT015
     FM082000 35012G20KT P6SM SCT250
     FM090300 36008KT P6SM SCT250=

USA.gov is the U.S. government's official web portal to all federal, state and local government web resources and services.